Archival Weather

Republic

Farmingdale, New York (KFRG)

Report from: Sunday, February 18, 2024 10:53 PM EST
Current time: Friday, June 14, 2024 8:46 AM EDT

Current weather – Weather history – Daily summaries
Weather forecast

Temperature1.7°C (35.1°F)
Wind chill-2.3°C (27.9°F)
Dew point-6.7°C (19.9°F)
Winds 8 kts (4.1 m/s, 9.2 mph) West (260°)
Visibility10 mi. (16.1 km)
Clouds Sky clear
Altimeter29.90 in.Hg (1013 mB)
Relative humidity54 %
Density altitude-1,536 ft. (-468 m)
Sea-level pressure101.3 kPa (1013 mB, 29.90 in.Hg)
Remarks Fully automated report
Automated weather observing station without precipitation discriminator
Freezing rain sensor not operating
Flight conditions Visual Meteorological Conditions
Raw dataKFRG 190353Z AUTO 26008KT 10SM CLR 02/M07 A2990 RMK AO1 SLP126 T00171067 FZRANO
An error has occurred. This application may no longer respond until reloaded. Reload 🗙